Time;durP1;ratioP1;P1;durP2;ratioP2;P2;SDS_P1;SDS_P2;PMS_P1;PMS_P2;Temp;Humidity;BMP_temperature;BMP_pressure;BME280_temperature;BME280_humidity;BME280_pressure;Samples;Min_cycle;Max_cycle;Signal;HPM_P1;HPM_P2
2023/01/15 00:00:51;;;;;;;17.30;2.58;;;;;;;-139.84;100.00;61778.28;5023173;28;20133;-78
2023/01/15 00:04:19;;;;;;;16.83;3.60;;;;;;;-139.84;100.00;61778.28;5021379;28;20480;-77
2023/01/15 00:07:43;;;;;;;14.10;2.75;;;;;;;-139.84;100.00;61778.28;5021348;28;20034;-77
2023/01/15 00:11:07;;;;;;;17.83;2.85;;;;;;;-139.84;100.00;61778.28;5026427;28;20354;-77
2023/01/15 00:14:31;;;;;;;20.25;3.42;;;;;;;-139.84;100.00;61778.28;5019805;28;20421;-77
2023/01/15 00:17:55;;;;;;;23.83;3.63;;;;;;;-139.84;100.00;61778.28;5016126;28;20439;-76
2023/01/15 00:21:20;;;;;;;19.40;2.58;;;;;;;-139.84;100.00;61778.28;5025451;28;20143;-75
2023/01/15 00:28:26;;;;;;;17.38;3.38;;;;;;;-139.84;100.00;61778.28;5021883;28;20512;-77
2023/01/15 00:31:52;;;;;;;31.27;3.38;;;;;;;-139.84;100.00;61778.28;5020993;28;20116;-77
2023/01/15 00:35:18;;;;;;;15.02;2.63;;;;;;;-139.84;100.00;61778.28;5025140;28;20037;-77
2023/01/15 00:38:42;;;;;;;14.85;2.33;;;;;;;-139.84;100.00;61778.28;5021814;28;20060;-77
2023/01/15 00:42:06;;;;;;;22.05;3.45;;;;;;;-139.84;100.00;61778.28;5023188;28;20115;-77
2023/01/15 00:45:30;;;;;;;15.70;2.63;;;;;;;-139.84;100.00;61778.28;5035046;28;20025;-78
2023/01/15 00:48:54;;;;;;;19.27;2.88;;;;;;;-139.84;100.00;61778.28;5020338;28;20033;-78
2023/01/15 00:52:18;;;;;;;20.08;2.45;;;;;;;-139.84;100.00;61778.28;5022967;28;20068;-78
2023/01/15 00:55:43;;;;;;;12.85;2.60;;;;;;;-139.84;100.00;61778.28;5016799;28;20107;-77
2023/01/15 00:58:49;;;;;;;21.75;3.47;;;;;;;7.39;92.76;99932.34;5020723;28;20042;-78
2023/01/15 01:01:15;;;;;;;13.10;2.58;;;;;;;7.03;87.68;99947.97;5021004;28;20408;-77
2023/01/15 01:03:41;;;;;;;21.77;3.00;;;;;;;6.98;88.68;99950.44;5023829;28;20032;-77
2023/01/15 01:06:09;;;;;;;25.80;2.80;;;;;;;6.95;89.54;99959.84;5020665;28;20430;-77
2023/01/15 01:08:35;;;;;;;17.65;2.35;;;;;;;6.94;88.87;99962.78;5021566;28;20039;-77
2023/01/15 01:11:09;;;;;;;11.48;2.13;;;;;;;6.95;88.13;99953.56;5019339;28;20033;-76
2023/01/15 01:13:37;;;;;;;17.25;3.55;;;;;;;6.92;88.16;99954.81;5033202;28;20113;-77
2023/01/15 01:16:03;;;;;;;25.27;2.75;;;;;;;6.95;87.65;99950.84;5025732;28;20120;-78
2023/01/15 01:18:29;;;;;;;23.83;3.80;;;;;;;6.88;88.64;99952.69;5027162;28;20037;-77
2023/01/15 01:20:55;;;;;;;16.13;2.78;;;;;;;6.94;87.88;99957.34;5020442;28;20457;-78
2023/01/15 01:23:22;;;;;;;18.40;2.58;;;;;;;6.90;88.72;99951.41;5028647;28;20124;-77
2023/01/15 01:25:48;;;;;;;20.88;2.78;;;;;;;6.93;87.91;99950.19;5020592;28;20017;-78
2023/01/15 01:28:13;;;;;;;17.35;2.42;;;;;;;6.86;88.90;99952.88;5020179;28;20052;-78
2023/01/15 01:30:40;;;;;;;17.58;2.95;;;;;;;6.86;89.48;99952.00;5028143;28;20118;-78
2023/01/15 01:33:05;;;;;;;12.98;2.50;;;;;;;6.88;88.34;99960.84;5022429;28;20108;-78
2023/01/15 01:35:31;;;;;;;10.73;2.50;;;;;;;6.85;88.94;99972.09;5022685;28;20585;-78
2023/01/15 01:37:56;;;;;;;11.90;2.92;;;;;;;6.89;88.67;99965.25;5022201;28;20382;-78
2023/01/15 01:40:22;;;;;;;16.05;2.17;;;;;;;6.86;88.95;99965.63;5023802;28;20065;-77
2023/01/15 01:42:47;;;;;;;16.52;3.17;;;;;;;6.84;88.01;99956.81;5020034;28;20411;-78
2023/01/15 01:45:18;;;;;;;11.40;2.20;;;;;;;6.86;89.17;99963.75;5022493;28;20473;-78
2023/01/15 01:47:45;;;;;;;13.98;2.50;;;;;;;6.81;87.72;99960.78;5020652;28;20021;-78
2023/01/15 01:50:12;;;;;;;10.95;2.80;;;;;;;6.84;87.87;99954.09;5020426;28;20033;-78
2023/01/15 01:52:45;;;;;;;33.25;3.42;;;;;;;6.86;87.24;99957.47;5018309;28;20108;-77
2023/01/15 01:55:14;;;;;;;9.98;2.40;;;;;;;6.77;88.21;99959.47;5019873;28;20033;-77
2023/01/15 01:57:40;;;;;;;15.95;3.10;;;;;;;6.82;87.58;99961.59;5021878;28;20045;-77
2023/01/15 02:00:06;;;;;;;18.75;3.13;;;;;;;6.82;87.93;99967.91;5021426;28;20030;-77
2023/01/15 02:02:31;;;;;;;19.60;3.03;;;;;;;6.74;87.91;99962.56;5026480;28;20033;-76
2023/01/15 02:04:57;;;;;;;11.30;2.28;;;;;;;6.75;88.55;99960.69;5024919;28;20056;-77
2023/01/15 02:07:24;;;;;;;22.37;2.50;;;;;;;6.74;87.47;99948.97;5022198;28;20025;-76
2023/01/15 02:09:49;;;;;;;11.55;1.88;;;;;;;6.77;87.30;99942.28;5029160;28;20485;-77
2023/01/15 02:12:30;;;;;;;16.73;2.25;;;;;;;6.77;87.98;99939.56;5024899;28;20054;-77
2023/01/15 02:15:32;;;;;;;12.05;2.03;;;;;;;6.76;86.96;99941.47;5022802;28;20509;-77
2023/01/15 02:18:28;;;;;;;12.23;2.17;;;;;;;6.77;87.31;99942.28;5034059;28;20045;-77
2023/01/15 02:21:00;;;;;;;16.08;2.05;;;;;;;6.78;86.79;99949.44;5026525;28;20029;-77
2023/01/15 02:24:03;;;;;;;12.95;1.95;;;;;;;6.74;87.31;99956.31;5026369;28;20044;-76
2023/01/15 02:26:49;;;;;;;18.52;2.53;;;;;;;6.68;87.34;99941.59;5026417;28;20481;-78
2023/01/15 02:29:22;;;;;;;15.98;2.13;;;;;;;6.68;87.44;99954.38;5024432;28;20543;-76
2023/01/15 02:31:51;;;;;;;12.50;2.00;;;;;;;6.64;87.88;99956.63;5022414;28;20033;-77
2023/01/15 02:34:29;;;;;;;19.60;2.95;;;;;;;6.68;87.10;99948.91;5022397;28;20034;-76
2023/01/15 02:37:06;;;;;;;16.52;2.40;;;;;;;6.70;87.24;99955.00;5021873;28;20037;-77
2023/01/15 02:39:35;;;;;;;16.58;2.38;;;;;;;6.71;87.48;99962.97;5025430;28;20363;-77
2023/01/15 02:42:04;;;;;;;10.05;2.13;;;;;;;6.74;86.70;99964.47;5020018;28;20342;-77
2023/01/15 02:44:34;;;;;;;15.90;2.65;;;;;;;6.70;86.54;99955.84;5025728;28;20439;-77
2023/01/15 02:47:03;;;;;;;12.70;2.88;;;;;;;6.74;86.06;99950.88;5019878;28;20523;-77
2023/01/15 02:50:31;;;;;;;19.40;2.17;;;;;;;-139.84;100.00;61778.28;5022592;28;20021;-77
2023/01/15 02:53:13;;;;;;;16.55;1.85;;;;;;;6.74;86.06;99950.88;5021875;28;20040;-77
2023/01/15 02:55:45;;;;;;;17.85;2.38;;;;;;;6.67;87.01;99947.25;5019423;28;20114;-76
2023/01/15 02:58:15;;;;;;;9.30;2.20;;;;;;;6.64;87.44;99937.59;5026261;28;20444;-77
2023/01/15 03:00:46;;;;;;;14.85;2.22;;;;;;;6.68;86.80;99929.88;5023928;28;20120;-77
2023/01/15 03:03:22;;;;;;;19.95;2.17;;;;;;;6.66;87.42;99932.78;5019027;28;20030;-77
2023/01/15 03:06:01;;;;;;;19.98;2.60;;;;;;;6.61;88.18;99942.56;5027498;28;20407;-77
2023/01/15 03:08:26;;;;;;;20.63;3.00;;;;;;;6.54;88.87;99945.22;5023287;28;20031;-76
2023/01/15 03:11:08;;;;;;;10.18;1.95;;;;;;;6.57;88.77;99944.81;5007379;28;20040;-76
2023/01/15 03:14:05;;;;;;;13.50;2.22;;;;;;;6.67;86.89;99956.22;5022693;28;20033;-77
2023/01/15 03:16:38;;;;;;;16.52;2.80;;;;;;;6.66;87.57;99946.38;5020216;28;20450;-76
2023/01/15 03:19:26;;;;;;;19.80;2.33;;;;;;;6.68;88.42;99938.03;5026219;28;20192;-76
2023/01/15 03:21:55;;;;;;;12.23;2.17;;;;;;;6.62;88.45;99938.81;5023469;28;20030;-76
2023/01/15 03:24:29;;;;;;;20.52;2.40;;;;;;;6.66;87.23;99942.81;5016244;28;20054;-75
2023/01/15 03:26:55;;;;;;;14.40;2.92;;;;;;;6.62;88.30;99938.81;5021626;28;20545;-77
2023/01/15 03:29:24;;;;;;;16.10;3.13;;;;;;;6.59;88.11;99936.47;4992411;28;20116;-76
2023/01/15 03:31:50;;;;;;;10.82;2.42;;;;;;;6.52;88.39;99935.56;5029462;28;20540;-76
2023/01/15 03:34:16;;;;;;;17.27;3.00;;;;;;;6.49;89.09;99942.25;5026545;28;20057;-76
2023/01/15 03:36:43;;;;;;;23.88;2.58;;;;;;;6.50;88.65;99943.06;5023647;28;20433;-76
2023/01/15 03:39:08;;;;;;;;;;;;;;;6.57;88.06;99947.53;5027859;28;20036;-76
2023/01/15 03:41:42;;;;;;;15.65;2.50;;;;;;;6.56;87.92;99939.59;5020544;28;19913;-76
2023/01/15 03:44:17;;;;;;;11.55;2.58;;;;;;;6.52;87.76;99938.28;5022494;28;20033;-76
2023/01/15 03:47:01;;;;;;;10.68;2.33;;;;;;;6.54;87.96;99936.22;5026202;28;20022;-75
2023/01/15 03:49:55;;;;;;;17.77;2.55;;;;;;;6.47;88.34;99927.16;5019329;28;20182;-72
2023/01/15 03:52:49;;;;;;;22.92;2.95;;;;;;;6.50;89.43;99921.31;5023108;28;20025;-74
2023/01/15 03:55:21;;;;;;;8.88;2.03;;;;;;;6.48;88.67;99926.09;5025829;28;20034;-76
2023/01/15 03:58:13;;;;;;;20.50;2.60;;;;;;;6.52;87.53;99930.13;5019144;28;20038;-73
2023/01/15 04:00:49;;;;;;;12.10;1.85;;;;;;;6.52;87.04;99924.69;5018665;28;20037;-73
2023/01/15 04:03:16;;;;;;;12.90;2.33;;;;;;;6.51;88.09;99931.19;5023504;28;20132;-74
2023/01/15 04:05:42;;;;;;;21.23;2.03;;;;;;;6.49;89.28;99927.78;5032310;28;20025;-72
2023/01/15 04:08:12;;;;;;;11.60;2.05;;;;;;;6.50;89.44;99929.47;5020027;28;20022;-74
2023/01/15 04:10:56;;;;;;;16.52;2.45;;;;;;;6.48;89.98;99931.53;5028237;28;20033;-73
2023/01/15 04:13:22;;;;;;;22.13;2.72;;;;;;;6.41;91.37;99931.47;5021485;28;20419;-74
2023/01/15 04:15:48;;;;;;;22.02;2.97;;;;;;;6.43;91.63;99929.41;5023672;28;20027;-73
2023/01/15 04:18:13;;;;;;;15.15;2.63;;;;;;;6.39;92.36;99921.81;5022725;28;20037;-75
2023/01/15 04:20:39;;;;;;;14.88;2.78;;;;;;;6.36;92.04;99924.94;5025924;28;20030;-74
2023/01/15 04:23:04;;;;;;;14.88;2.85;;;;;;;6.36;92.20;99933.94;5029013;28;20041;-74
2023/01/15 04:25:29;;;;;;;20.17;3.95;;;;;;;6.39;91.54;99929.97;5021501;28;20069;-74
2023/01/15 04:27:57;;;;;;;27.90;3.55;;;;;;;6.34;92.51;99936.00;5022603;28;20065;-74
2023/01/15 04:30:23;;;;;;;13.88;2.70;;;;;;;6.32;92.45;99931.78;5010738;28;20585;-73
2023/01/15 04:32:49;;;;;;;17.38;3.85;;;;;;;6.25;92.36;99931.72;5026816;28;20108;-74
2023/01/15 04:35:16;;;;;;;14.82;2.28;;;;;;;6.26;92.08;99929.84;5020863;28;20036;-77
2023/01/15 04:37:41;;;;;;;21.10;2.63;;;;;;;6.21;92.70;99924.13;5022446;28;20115;-74
2023/01/15 04:40:07;;;;;;;11.82;2.55;;;;;;;6.20;91.93;99926.00;5028639;28;20110;-73
2023/01/15 04:45:20;;;;;;;13.75;2.55;;;;;;;6.17;92.54;99937.28;5020324;28;20274;-75
2023/01/15 04:47:45;;;;;;;22.25;2.45;;;;;;;6.15;92.11;99931.16;5020940;28;20339;-74
2023/01/15 04:50:11;;;;;;;8.93;1.95;;;;;;;6.13;92.35;99933.25;5022770;28;20028;-74
2023/01/15 04:52:37;;;;;;;11.10;2.00;;;;;;;6.18;92.82;99935.38;5024394;28;20033;-73
2023/01/15 04:55:03;;;;;;;18.33;2.00;;;;;;;6.09;92.90;99931.94;5018235;28;20056;-74
2023/01/15 04:57:28;;;;;;;20.33;2.50;;;;;;;6.15;92.75;99925.75;5020782;28;20461;-73
2023/01/15 04:59:54;;;;;;;17.48;3.08;;;;;;;6.08;92.78;99930.25;5020665;28;20045;-73
2023/01/15 05:02:19;;;;;;;12.07;2.13;;;;;;;6.11;92.73;99924.47;5023290;28;20040;-73
2023/01/15 05:04:45;;;;;;;14.93;2.20;;;;;;;6.13;92.49;99929.69;5021174;28;20428;-73
2023/01/15 05:07:10;;;;;;;13.50;1.90;;;;;;;6.06;94.06;99926.91;5012059;28;20061;-73
2023/01/15 05:09:36;;;;;;;11.48;3.08;;;;;;;6.08;93.16;99918.56;5020667;28;20032;-73
2023/01/15 05:12:01;;;;;;;15.70;3.20;;;;;;;6.09;93.48;99928.41;5025221;28;20031;-74
2023/01/15 05:14:27;;;;;;;19.95;2.65;;;;;;;6.06;93.20;99928.78;5025527;28;20104;-75
2023/01/15 05:16:52;;;;;;;8.27;1.98;;;;;;;6.08;93.40;99924.00;5028535;28;20102;-73
2023/01/15 05:19:18;;;;;;;21.58;3.10;;;;;;;5.97;93.35;99914.44;5021545;28;20504;-75
2023/01/15 05:21:44;;;;;;;12.10;2.28;;;;;;;5.98;92.81;99907.97;5026525;28;21359;-73
2023/01/15 05:24:16;;;;;;;13.05;3.40;;;;;;;6.06;91.70;99904.31;5025758;28;20037;-74
2023/01/15 05:26:45;;;;;;;20.52;2.25;;;;;;;5.96;92.02;99907.34;5021451;28;20478;-73
2023/01/15 05:29:11;;;;;;;14.20;1.83;;;;;;;6.03;91.08;99905.53;5022699;28;20034;-74
2023/01/15 05:31:38;;;;;;;13.18;2.05;;;;;;;6.02;89.17;99903.00;4992950;28;20034;-74
2023/01/15 05:34:03;;;;;;;17.30;2.33;;;;;;;5.99;89.46;99887.91;5017996;28;20041;-74
2023/01/15 05:36:31;;;;;;;19.08;3.40;;;;;;;6.00;88.50;99891.47;5022609;28;20278;-74
2023/01/15 05:39:00;;;;;;;10.40;1.75;;;;;;;5.99;88.13;99898.78;5017530;28;20033;-73
2023/01/15 05:44:12;;;;;;;13.45;2.22;;;;;;;5.98;86.42;99907.16;5026535;28;20031;-73
2023/01/15 05:46:39;;;;;;;12.82;1.88;;;;;;;6.02;86.71;99903.00;5028474;28;20113;-73
2023/01/15 05:49:06;;;;;;;;;;;;;;;6.05;86.17;99905.34;5023830;28;20038;-73
2023/01/15 05:51:34;;;;;;;13.02;2.25;;;;;;;6.10;85.63;99906.44;5027168;28;19920;-74
2023/01/15 05:54:00;;;;;;;14.88;2.53;;;;;;;6.12;84.95;99908.97;5023726;28;20033;-73
2023/01/15 05:56:27;;;;;;;17.33;2.45;;;;;;;6.19;84.49;99912.63;5026241;28;20045;-75
2023/01/15 05:58:54;;;;;;;12.55;2.03;;;;;;;6.16;84.95;99926.59;5022933;28;20042;-74
2023/01/15 06:01:20;;;;;;;15.02;2.83;;;;;;;6.16;84.93;99915.72;5031515;28;20398;-74
2023/01/15 06:03:47;;;;;;;14.93;3.33;;;;;;;6.12;86.25;99920.69;5026097;28;20477;-73
2023/01/15 06:06:14;;;;;;;13.05;2.20;;;;;;;6.16;85.82;99938.31;5010761;28;20520;-73
2023/01/15 06:08:40;;;;;;;14.18;2.17;;;;;;;6.06;87.81;99932.34;5023686;28;20026;-73
2023/01/15 06:11:06;;;;;;;17.52;1.92;;;;;;;6.02;88.81;99943.75;5025841;28;20084;-73
2023/01/15 06:13:32;;;;;;;13.52;2.13;;;;;;;5.97;89.23;99943.50;5023078;28;20153;-74
2023/01/15 06:15:58;;;;;;;14.57;2.33;;;;;;;5.95;88.23;99937.41;5014382;28;20069;-74
2023/01/15 06:18:24;;;;;;;17.33;3.45;;;;;;;6.00;86.88;99949.41;5029624;28;20030;-74
2023/01/15 06:20:49;;;;;;;9.60;1.73;;;;;;;6.03;86.60;99932.72;5026798;28;20028;-74
2023/01/15 06:23:17;;;;;;;15.32;3.25;;;;;;;6.05;84.98;99941.53;5024925;28;20496;-74
2023/01/15 06:25:42;;;;;;;14.82;3.28;;;;;;;5.95;86.05;99940.13;5022809;28;20025;-75
2023/01/15 06:28:08;;;;;;;14.75;2.70;;;;;;;5.79;87.33;99943.88;5025725;28;20370;-73
2023/01/15 06:30:36;;;;;;;15.17;2.20;;;;;;;5.73;87.27;99941.94;5020855;28;20042;-72
2023/01/15 06:33:02;;;;;;;18.48;2.53;;;;;;;5.67;87.52;99955.41;5008239;28;20294;-72
2023/01/15 06:35:27;;;;;;;9.13;2.63;;;;;;;5.71;86.72;99949.41;5028898;28;20528;-74
2023/01/15 06:37:53;;;;;;;15.65;3.20;;;;;;;5.58;87.23;99941.09;5021952;28;20477;-72
2023/01/15 06:40:18;;;;;;;14.43;2.58;;;;;;;5.60;87.79;99949.06;5020074;28;20037;-74
2023/01/15 06:48:20;;;;;;;18.23;2.50;;;;;;;5.59;85.56;99941.91;5018691;28;20459;-74
2023/01/15 06:50:45;;;;;;;10.18;1.80;;;;;;;5.61;84.38;99937.97;5029977;28;20030;-74
2023/01/15 06:53:11;;;;;;;17.92;2.30;;;;;;;5.60;84.66;99940.91;5021220;28;20135;-74
2023/01/15 06:55:37;;;;;;;18.42;2.42;;;;;;;5.61;83.10;99932.53;5027696;28;20038;-75
2023/01/15 06:58:03;;;;;;;15.80;2.83;;;;;;;5.56;83.78;99939.59;5021856;28;20061;-74
2023/01/15 07:00:28;;;;;;;10.20;1.90;;;;;;;5.52;84.07;99943.69;5024995;28;20036;-75
2023/01/15 07:02:53;;;;;;;10.60;2.47;;;;;;;5.53;83.74;99945.38;5023753;28;20029;-74
2023/01/15 07:05:20;;;;;;;11.93;2.17;;;;;;;5.54;83.89;99942.47;5022975;28;20430;-74
2023/01/15 07:07:45;;;;;;;12.90;2.20;;;;;;;5.61;83.70;99948.00;5021784;28;20030;-74
2023/01/15 07:10:11;;;;;;;13.85;2.05;;;;;;;5.61;83.33;99942.59;5024939;28;20060;-74
2023/01/15 07:12:36;;;;;;;11.57;2.08;;;;;;;5.62;83.67;99946.97;5027002;28;20036;-74
2023/01/15 07:15:01;;;;;;;14.82;2.60;;;;;;;5.56;83.30;99943.13;5023403;28;20100;-75
2023/01/15 07:17:27;;;;;;;12.02;1.77;;;;;;;5.55;83.37;99940.63;5020090;28;20113;-74
2023/01/15 07:19:52;;;;;;;12.77;1.75;;;;;;;5.54;84.10;99938.91;5024685;28;20514;-74
2023/01/15 07:22:18;;;;;;;12.35;2.17;;;;;;;5.53;83.75;99934.50;5019681;28;20651;-74
2023/01/15 07:24:43;;;;;;;13.93;2.95;;;;;;;5.56;82.77;99917.84;5022914;28;20025;-74
2023/01/15 07:27:08;;;;;;;15.98;2.88;;;;;;;5.52;83.40;99924.69;5025152;28;20120;-74
2023/01/15 07:29:34;;;;;;;9.52;2.13;;;;;;;5.59;82.45;99931.03;5024282;28;20469;-74
2023/01/15 07:31:59;;;;;;;14.55;2.10;;;;;;;5.54;82.95;99922.63;5021184;28;20029;-75
2023/01/15 07:34:25;;;;;;;14.30;2.50;;;;;;;5.54;82.74;99931.63;5026703;28;20120;-73
2023/01/15 07:36:50;;;;;;;9.75;2.03;;;;;;;5.58;81.57;99932.06;5027762;28;20460;-74
2023/01/15 07:39:15;;;;;;;16.33;2.25;;;;;;;5.51;82.75;99929.25;5019734;28;20476;-75
2023/01/15 07:50:10;;;;;;;15.68;2.17;;;;;;;5.57;82.67;99936.69;5027272;28;20044;-73
2023/01/15 07:52:35;;;;;;;13.50;1.63;;;;;;;5.60;82.59;99924.59;5019449;28;20037;-73
2023/01/15 07:55:02;;;;;;;14.18;2.20;;;;;;;5.60;82.23;99940.91;5020733;28;20033;-73
2023/01/15 07:57:28;;;;;;;9.82;1.88;;;;;;;5.62;82.21;99938.81;5028159;28;20181;-73
2023/01/15 07:59:53;;;;;;;22.70;2.45;;;;;;;5.58;81.94;99938.38;5022712;28;20124;-74
2023/01/15 08:02:18;;;;;;;18.10;2.15;;;;;;;5.53;83.19;99934.50;5023633;28;20048;-74
2023/01/15 08:04:46;;;;;;;10.95;2.17;;;;;;;5.56;83.04;99945.84;5023130;28;20029;-73
2023/01/15 08:07:13;;;;;;;13.45;2.28;;;;;;;5.52;83.65;99949.97;5026013;28;20048;-74
2023/01/15 08:09:39;;;;;;;19.63;2.60;;;;;;;5.54;84.32;99941.63;5026031;28;20029;-74
2023/01/15 08:17:36;;;;;;;15.77;3.45;;;;;;;5.54;84.66;99938.91;5023342;28;20032;-73
2023/01/15 08:20:04;;;;;;;17.23;2.03;;;;;;;5.59;84.44;99940.03;5019089;28;20026;-74
2023/01/15 08:22:29;;;;;;;15.00;2.20;;;;;;;5.71;83.96;99949.41;5021172;28;20033;-73
2023/01/15 08:24:55;;;;;;;14.65;2.35;;;;;;;5.80;83.99;99952.88;5021673;28;20028;-74
2023/01/15 08:27:20;;;;;;;14.93;1.90;;;;;;;5.83;84.31;99947.91;5021076;28;20064;-75
2023/01/15 08:29:46;;;;;;;15.98;1.92;;;;;;;5.80;83.62;99942.88;5019870;28;20033;-74
2023/01/15 08:32:11;;;;;;;10.73;2.20;;;;;;;5.79;84.50;99937.59;5027258;28;20051;-75
2023/01/15 08:34:36;;;;;;;11.95;2.88;;;;;;;5.75;84.98;99939.00;5018333;28;20033;-73
2023/01/15 08:37:02;;;;;;;15.65;1.88;;;;;;;5.76;85.74;99946.97;5024179;28;20095;-74
2023/01/15 08:39:28;;;;;;;12.20;2.22;;;;;;;5.77;85.10;99945.94;5021421;28;20022;-73
2023/01/15 08:41:55;;;;;;;20.13;2.23;;;;;;;5.78;85.78;99955.75;5022894;28;20439;-73
2023/01/15 08:44:22;;;;;;;11.48;2.17;;;;;;;5.75;85.26;99960.72;5022223;28;20127;-75
2023/01/15 08:46:48;;;;;;;20.98;2.70;;;;;;;5.77;84.05;99947.81;5016326;28;20022;-75
2023/01/15 08:49:14;;;;;;;9.75;2.08;;;;;;;5.73;84.96;99960.09;5017675;28;20087;-74
2023/01/15 08:51:39;;;;;;;26.13;4.28;;;;;;;5.72;85.35;99951.09;5020374;28;20033;-76
2023/01/15 08:54:05;;;;;;;14.60;4.28;;;;;;;5.74;84.31;99940.88;5024703;28;20021;-75
2023/01/15 08:56:30;;;;;;;17.02;2.03;;;;;;;5.72;84.76;99950.25;5019499;28;20120;-75
2023/01/15 08:58:55;;;;;;;17.27;2.58;;;;;;;5.78;85.44;99954.94;5023667;28;20044;-75
2023/01/15 09:01:21;;;;;;;23.20;2.47;;;;;;;5.90;84.56;99958.88;5025450;28;20495;-74
2023/01/15 09:03:46;;;;;;;11.27;2.10;;;;;;;5.94;85.20;99950.16;5024287;28;20456;-75
2023/01/15 09:06:12;;;;;;;17.10;2.50;;;;;;;5.97;85.33;99951.66;5019251;28;20030;-77
2023/01/15 09:08:38;;;;;;;11.38;2.05;;;;;;;5.96;85.13;99952.69;5021858;28;20037;-75
2023/01/15 09:11:06;;;;;;;17.20;3.25;;;;;;;5.97;84.66;99947.06;5023727;28;20049;-74
2023/01/15 09:13:31;;;;;;;9.15;1.80;;;;;;;6.06;83.47;99945.06;5023909;28;20021;-75
2023/01/15 09:16:04;;;;;;;15.93;1.90;;;;;;;6.10;84.56;99949.94;5024690;28;20041;-74
2023/01/15 09:18:30;;;;;;;13.35;2.88;;;;;;;6.15;83.87;99936.63;5021279;28;20029;-74
2023/01/15 09:20:55;;;;;;;20.30;3.25;;;;;;;6.16;83.50;99932.03;5017160;28;20040;-74
2023/01/15 09:23:21;;;;;;;11.18;2.15;;;;;;;6.18;83.69;99936.25;5019759;28;20029;-75
2023/01/15 09:26:06;;;;;;;11.90;1.90;;;;;;;6.19;83.59;99937.09;5021624;28;20063;-74
2023/01/15 09:28:33;;;;;;;13.02;2.50;;;;;;;6.28;83.52;99933.19;5026346;28;20022;-74
2023/01/15 09:31:00;;;;;;;12.75;2.50;;;;;;;6.35;83.56;99934.97;5022382;28;20029;-74
2023/01/15 09:33:25;;;;;;;9.75;2.42;;;;;;;6.37;83.34;99934.78;5017474;28;20068;-74
2023/01/15 09:35:51;;;;;;;14.23;2.75;;;;;;;6.41;83.50;99941.53;5017447;28;20556;-74
2023/01/15 09:38:19;;;;;;;14.35;2.42;;;;;;;6.39;83.40;99940.84;5019164;28;20124;-75
2023/01/15 09:40:54;;;;;;;17.33;2.67;;;;;;;6.36;83.65;99952.13;5018738;28;20071;-75
2023/01/15 09:43:48;;;;;;;11.82;2.63;;;;;;;6.38;83.13;99953.63;5019401;28;20029;-75
2023/01/15 09:46:34;;;;;;;15.07;2.65;;;;;;;6.40;83.69;99956.16;5022528;28;20026;-75
2023/01/15 09:49:32;;;;;;;14.30;3.10;;;;;;;6.30;83.94;99948.28;5021800;28;20029;-74
2023/01/15 09:52:21;;;;;;;9.20;2.00;;;;;;;6.24;84.37;99945.53;5016973;28;20030;-74
2023/01/15 09:55:15;;;;;;;19.70;2.55;;;;;;;6.20;84.09;99955.91;5017033;28;20076;-75
2023/01/15 09:57:42;;;;;;;12.77;2.78;;;;;;;6.31;84.05;99965.47;5017723;28;20394;-74
2023/01/15 10:00:16;;;;;;;9.38;2.55;;;;;;;6.46;83.58;99958.13;5023374;28;20028;-75
2023/01/15 10:03:00;;;;;;;23.80;3.65;;;;;;;6.59;82.66;99972.69;5022972;28;20049;-75
2023/01/15 10:05:42;;;;;;;15.70;2.72;;;;;;;6.61;82.76;99964.31;5022180;28;20103;-75
2023/01/15 10:08:25;;;;;;;18.25;2.55;;;;;;;6.60;82.36;99960.78;5022634;28;20505;-74
2023/01/15 10:10:59;;;;;;;21.95;3.42;;;;;;;6.59;81.81;99974.56;5022707;28;20103;-74
2023/01/15 10:13:42;;;;;;;17.42;2.83;;;;;;;6.68;82.26;99967.97;5024076;28;20026;-75
2023/01/15 10:16:10;;;;;;;15.45;2.50;;;;;;;6.70;81.43;99953.13;5024124;28;20037;-74
2023/01/15 10:18:36;;;;;;;15.00;2.22;;;;;;;6.84;80.93;99975.88;5016886;28;20029;-74
2023/01/15 10:21:16;;;;;;;19.58;3.60;;;;;;;6.85;81.01;99972.09;5017724;28;20033;-74
2023/01/15 10:23:51;;;;;;;18.60;2.60;;;;;;;6.83;80.65;99972.28;5023928;28;20022;-75
2023/01/15 10:26:59;;;;;;;13.65;3.08;;;;;;;6.98;81.24;99972.22;5026390;28;20025;-75
2023/01/15 10:29:47;;;;;;;18.58;3.30;;;;;;;7.08;80.34;99976.31;5026556;28;20222;-75
2023/01/15 10:32:28;;;;;;;11.98;2.75;;;;;;;7.14;79.54;99988.28;5024989;28;20029;-75
2023/01/15 10:35:21;;;;;;;16.90;3.05;;;;;;;7.00;80.39;99994.66;5023475;28;20099;-74
2023/01/15 10:38:16;;;;;;;21.67;2.90;;;;;;;7.01;80.89;99997.19;5026922;28;20034;-74
2023/01/15 10:41:15;;;;;;;16.60;2.70;;;;;;;7.19;81.70;99985.81;5025562;28;20049;-75
2023/01/15 10:44:03;;;;;;;8.27;2.03;;;;;;;7.10;80.44;99987.00;5024497;28;20021;-76
2023/01/15 10:46:36;;;;;;;16.75;2.70;;;;;;;7.00;82.31;99987.31;5026192;28;20072;-75
2023/01/15 10:49:10;;;;;;;17.38;3.30;;;;;;;7.03;81.62;99976.06;5025978;28;20036;-76
2023/01/15 10:52:01;;;;;;;7.68;2.25;;;;;;;7.16;82.05;99972.59;5024149;28;20037;-75
2023/01/15 10:54:39;;;;;;;15.80;2.60;;;;;;;7.12;82.78;99974.03;5017152;28;20084;-74
2023/01/15 10:57:27;;;;;;;10.88;3.00;;;;;;;7.21;82.85;99970.13;5019991;28;20053;-74
2023/01/15 11:00:02;;;;;;;14.32;2.75;;;;;;;7.14;83.46;99980.97;5019153;28;20030;-74
2023/01/15 11:02:30;;;;;;;16.58;2.78;;;;;;;6.88;87.46;99977.19;5034962;28;20034;-75
2023/01/15 11:04:55;;;;;;;13.13;2.30;;;;;;;6.68;90.22;99965.25;5021700;28;20036;-76
2023/01/15 11:07:28;;;;;;;14.68;2.88;;;;;;;6.68;89.76;99963.34;5016782;28;20570;-74
2023/01/15 11:09:54;;;;;;;15.43;2.47;;;;;;;6.84;90.30;99982.13;5022961;28;20033;-74
2023/01/15 11:20:46;;;;;;;16.23;2.28;;;;;;;6.75;91.55;99982.47;5019406;28;20163;-74
2023/01/15 11:23:15;;;;;;;9.48;2.50;;;;;;;6.85;89.92;99964.81;5023276;28;20025;-74
2023/01/15 11:25:49;;;;;;;21.27;2.72;;;;;;;6.89;89.08;100008.78;5018488;28;20421;-74
2023/01/15 11:28:16;;;;;;;17.90;2.40;;;;;;;6.75;89.52;99979.75;5016177;28;20030;-74
2023/01/15 11:30:43;;;;;;;10.00;3.28;;;;;;;6.73;90.81;100011.78;5026258;28;20105;-74
2023/01/15 11:33:22;;;;;;;15.45;3.55;;;;;;;6.61;91.72;99988.81;5023998;28;20091;-74
2023/01/15 11:35:57;;;;;;;13.10;3.22;;;;;;;6.83;91.20;99980.47;5020834;28;20026;-74
2023/01/15 11:38:27;;;;;;;15.40;3.90;;;;;;;6.81;90.91;99977.09;5014997;28;20028;-74
2023/01/15 11:40:58;;;;;;;8.80;1.80;;;;;;;6.57;90.39;99968.47;5021037;28;20029;-74
2023/01/15 11:52:00;;;;;;;12.82;2.65;;;;;;;6.39;95.69;99963.47;5028219;28;20112;-74
2023/01/15 11:54:30;;;;;;;14.05;2.55;;;;;;;6.62;95.32;99971.47;5020576;28;20485;-75
2023/01/15 11:56:57;;;;;;;14.20;2.05;;;;;;;6.52;95.48;99982.66;5022495;28;20124;-74
2023/01/15 11:59:23;;;;;;;15.50;2.50;;;;;;;6.55;93.94;99948.78;5027170;28;20389;-75
2023/01/15 12:01:56;;;;;;;16.48;2.75;;;;;;;6.63;94.76;99979.41;5027712;28;20547;-75
2023/01/15 12:04:31;;;;;;;13.45;2.22;;;;;;;6.71;94.69;99965.69;5020593;28;20116;-75
2023/01/15 12:06:58;;;;;;;13.85;2.08;;;;;;;6.92;93.43;99959.41;5017918;28;20148;-75
2023/01/15 12:09:38;;;;;;;9.98;1.80;;;;;;;6.94;91.88;99965.50;5022505;28;20508;-75
2023/01/15 12:12:10;;;;;;;12.18;2.22;;;;;;;6.99;92.56;99968.47;5018616;28;20617;-74
2023/01/15 12:15:10;;;;;;;15.18;2.15;;;;;;;6.80;92.90;99969.13;5024776;28;20029;-74
2023/01/15 12:18:18;;;;;;;15.40;2.25;;;;;;;6.83;93.71;99964.13;5023171;28;21200;-75
2023/01/15 12:21:04;;;;;;;13.82;2.22;;;;;;;6.83;94.25;99971.47;5037679;28;20040;-75
2023/01/15 12:24:14;;;;;;;10.25;2.20;;;;;;;6.88;93.21;99958.94;5017292;28;20080;-75
2023/01/15 12:27:13;;;;;;;9.70;2.42;;;;;;;6.81;93.80;99971.66;5018271;28;20022;-75
2023/01/15 12:29:55;;;;;;;13.40;2.10;;;;;;;7.01;93.07;99988.19;5026328;28;20032;-75
2023/01/15 12:32:28;;;;;;;11.80;2.15;;;;;;;7.01;93.27;99961.81;5025505;28;20108;-75
2023/01/15 12:35:01;;;;;;;11.85;2.53;;;;;;;6.99;92.92;99974.75;5018617;28;20044;-75
2023/01/15 12:37:33;;;;;;;20.63;2.67;;;;;;;6.95;93.59;99969.91;5025102;28;20028;-75
2023/01/15 12:40:14;;;;;;;13.60;2.20;;;;;;;6.95;93.61;99967.19;5023888;28;20456;-73
2023/01/15 12:45:35;;;;;;;12.73;2.63;;;;;;;6.89;93.38;99955.19;5023990;28;20025;-74
2023/01/15 12:48:11;;;;;;;14.15;3.25;;;;;;;6.93;94.17;99945.59;5020496;28;20504;-74
2023/01/15 12:50:36;;;;;;;9.82;2.10;;;;;;;6.93;94.11;99963.78;5022209;28;20100;-74
2023/01/15 12:53:09;;;;;;;22.00;3.78;;;;;;;6.96;94.43;99966.13;5016352;28;20104;-75